createdAt,value
2017-07-10T00:00:27.068Z,0
2017-07-10T00:01:07.647Z,0
2017-07-10T00:01:48.221Z,0
2017-07-10T00:02:28.806Z,0
2017-07-10T00:03:09.447Z,0
2017-07-10T00:03:49.961Z,0
2017-07-10T00:04:30.523Z,0
2017-07-10T00:05:11.104Z,0
2017-07-10T00:05:51.690Z,0
2017-07-10T00:06:32.274Z,0
2017-07-10T00:07:12.830Z,0
2017-07-10T00:07:53.415Z,0
2017-07-10T00:08:33.974Z,0
2017-07-10T00:09:14.537Z,0
2017-07-10T00:09:55.121Z,0
2017-07-10T00:10:35.708Z,0
2017-07-10T00:11:16.316Z,0
2017-07-10T00:11:56.868Z,0
2017-07-10T00:12:37.491Z,0
2017-07-10T00:13:18.072Z,0
2017-07-10T00:13:58.667Z,0
2017-07-10T00:14:39.242Z,0
2017-07-10T00:15:19.820Z,0
2017-07-10T00:16:00.396Z,0
2017-07-10T00:16:40.966Z,0
2017-07-10T00:17:21.536Z,0
2017-07-10T00:18:02.107Z,0
2017-07-10T00:18:42.686Z,0
2017-07-10T00:19:23.259Z,0
2017-07-10T00:20:03.839Z,0
2017-07-10T00:20:44.430Z,0
2017-07-10T00:21:25.028Z,0
2017-07-10T00:22:05.649Z,0
2017-07-10T00:22:46.258Z,0
2017-07-10T00:23:26.855Z,0
2017-07-10T00:24:07.433Z,0
2017-07-10T00:24:48.005Z,0
2017-07-10T00:25:28.579Z,0
2017-07-10T00:26:09.165Z,0
2017-07-10T00:26:49.810Z,0
2017-07-10T00:27:30.359Z,0
2017-07-10T00:28:10.947Z,0
2017-07-10T00:28:51.506Z,0
2017-07-10T00:29:32.088Z,0
2017-07-10T00:30:12.709Z,0
2017-07-10T00:30:53.357Z,0
2017-07-10T00:31:33.940Z,0
2017-07-10T00:32:14.510Z,0
2017-07-10T00:32:55.089Z,0
2017-07-10T00:33:42.525Z,0
2017-07-10T00:34:23.109Z,0
2017-07-10T00:35:03.686Z,0
2017-07-10T00:35:44.268Z,0
2017-07-10T00:36:24.833Z,0
2017-07-10T00:37:05.430Z,0
2017-07-10T00:37:46.033Z,0
2017-07-10T00:38:26.618Z,0
2017-07-10T00:39:07.209Z,0
2017-07-10T00:39:47.783Z,0
2017-07-10T00:40:28.380Z,0
2017-07-10T00:41:08.975Z,0
2017-07-10T00:41:49.587Z,0
2017-07-10T00:42:30.157Z,0
2017-07-10T00:43:10.745Z,0
2017-07-10T00:43:51.348Z,0
2017-07-10T00:44:31.931Z,0
2017-07-10T00:45:12.500Z,0
2017-07-10T00:45:53.086Z,0
2017-07-10T00:46:33.658Z,0
2017-07-10T00:47:14.255Z,0
2017-07-10T00:47:54.942Z,0
2017-07-10T00:48:35.507Z,0
2017-07-10T00:49:16.075Z,0
2017-07-10T00:49:56.651Z,0
2017-07-10T00:50:37.241Z,0
2017-07-10T00:51:17.831Z,0
2017-07-10T00:51:58.470Z,0
2017-07-10T00:52:39.057Z,0
2017-07-10T00:53:19.631Z,0
2017-07-10T00:54:00.248Z,0
2017-07-10T00:54:40.836Z,0
2017-07-10T00:55:21.414Z,0
2017-07-10T00:56:01.981Z,0
2017-07-10T00:56:42.552Z,0
2017-07-10T00:57:23.138Z,0
2017-07-10T00:58:03.699Z,0
2017-07-10T00:58:44.322Z,0
2017-07-10T00:59:24.917Z,0
2017-07-10T01:00:05.482Z,0
2017-07-10T01:00:46.057Z,0
2017-07-10T01:01:26.647Z,0
2017-07-10T01:02:07.222Z,0
2017-07-10T01:02:47.794Z,0
2017-07-10T01:03:28.367Z,0
2017-07-10T01:04:08.953Z,0
2017-07-10T01:04:49.538Z,0
2017-07-10T01:05:30.142Z,0
2017-07-10T01:06:10.703Z,0
2017-07-10T01:06:51.291Z,0
2017-07-10T01:07:31.859Z,0
2017-07-10T01:08:12.432Z,0
2017-07-10T01:08:52.997Z,0
2017-07-10T01:09:33.589Z,0
2017-07-10T01:10:14.179Z,0
2017-07-10T01:10:54.763Z,0
2017-07-10T01:11:35.361Z,0
2017-07-10T01:12:15.967Z,0
2017-07-10T01:12:56.564Z,0
2017-07-10T01:13:37.137Z,0
2017-07-10T01:14:17.769Z,0
2017-07-10T01:14:58.339Z,0
2017-07-10T01:15:38.953Z,0
2017-07-10T01:16:19.508Z,0
2017-07-10T01:17:00.105Z,0
2017-07-10T01:17:40.722Z,0
2017-07-10T01:18:21.298Z,0
2017-07-10T01:19:01.938Z,0
2017-07-10T01:19:42.539Z,0
2017-07-10T01:20:23.217Z,0
2017-07-10T01:21:03.897Z,0
2017-07-10T01:21:44.546Z,0
2017-07-10T01:22:25.130Z,0
2017-07-10T01:23:05.730Z,0
2017-07-10T01:23:46.315Z,0
2017-07-10T01:24:26.885Z,0
2017-07-10T01:25:07.486Z,0
2017-07-10T01:25:48.084Z,0
2017-07-10T01:26:28.789Z,0
2017-07-10T01:27:09.347Z,0
2017-07-10T01:27:49.970Z,0
2017-07-10T01:28:30.565Z,0
2017-07-10T01:29:11.160Z,0
2017-07-10T01:29:51.736Z,0
2017-07-10T01:30:32.305Z,0
2017-07-10T01:31:12.903Z,0
2017-07-10T01:31:53.480Z,0
2017-07-10T01:32:34.071Z,0
2017-07-10T01:33:14.673Z,0
2017-07-10T01:33:55.284Z,0
2017-07-10T01:34:35.950Z,0
2017-07-10T01:35:16.522Z,0
2017-07-10T01:35:57.127Z,0
2017-07-10T01:36:37.756Z,0
2017-07-10T01:37:18.340Z,0
2017-07-10T01:37:58.949Z,0
2017-07-10T01:38:39.539Z,0
2017-07-10T01:39:20.220Z,0
2017-07-10T01:40:00.847Z,0
2017-07-10T01:40:41.444Z,0
2017-07-10T01:41:22.021Z,0
2017-07-10T01:42:02.590Z,0
2017-07-10T01:42:43.249Z,0
2017-07-10T01:43:23.802Z,0
2017-07-10T01:44:04.408Z,0
2017-07-10T01:44:45.018Z,0
2017-07-10T01:45:25.602Z,0
2017-07-10T01:46:06.204Z,0
2017-07-10T01:46:46.859Z,0
2017-07-10T01:47:27.465Z,0
2017-07-10T01:48:08.045Z,0
2017-07-10T01:48:48.663Z,0
2017-07-10T01:49:29.217Z,0
2017-07-10T01:50:09.846Z,0
2017-07-10T01:50:50.407Z,0
2017-07-10T01:51:31.013Z,0
2017-07-10T01:52:11.587Z,0
2017-07-10T01:52:52.154Z,0
2017-07-10T01:53:32.760Z,0
2017-07-10T01:54:13.341Z,0
2017-07-10T01:54:53.912Z,0
2017-07-10T01:55:34.490Z,0
2017-07-10T01:56:15.072Z,0
2017-07-10T01:56:55.672Z,0
2017-07-10T01:57:36.267Z,0
2017-07-10T01:58:16.841Z,0
2017-07-10T01:58:57.561Z,0
2017-07-10T01:59:38.179Z,0
2017-07-10T02:00:18.736Z,0
2017-07-10T02:00:59.312Z,0
2017-07-10T02:01:39.914Z,0
2017-07-10T02:02:20.493Z,0
2017-07-10T02:03:01.272Z,0
2017-07-10T02:03:41.860Z,0
2017-07-10T02:04:22.413Z,0
2017-07-10T02:05:03.021Z,0
2017-07-10T02:05:43.582Z,0
2017-07-10T02:06:24.177Z,0
2017-07-10T02:07:04.763Z,0
2017-07-10T02:07:45.345Z,0
2017-07-10T02:08:25.930Z,0
2017-07-10T02:09:06.515Z,0
2017-07-10T02:09:47.084Z,0
2017-07-10T02:10:27.649Z,0
2017-07-10T02:11:08.271Z,0
2017-07-10T02:11:48.907Z,0
2017-07-10T02:12:29.508Z,0
2017-07-10T02:13:10.081Z,0
2017-07-10T02:13:50.655Z,0
2017-07-10T02:14:31.225Z,0
2017-07-10T02:15:11.815Z,4
2017-07-10T02:15:52.435Z,4
2017-07-10T02:16:33.102Z,4
2017-07-10T02:17:13.699Z,0
2017-07-10T02:17:54.270Z,0
2017-07-10T02:18:34.850Z,0
2017-07-10T02:19:15.457Z,0
2017-07-10T02:19:56.043Z,4
2017-07-10T02:20:36.643Z,4
2017-07-10T02:21:17.283Z,4
2017-07-10T02:21:57.902Z,0
2017-07-10T02:22:38.487Z,4
2017-07-10T02:23:19.072Z,4
2017-07-10T02:23:59.680Z,4
2017-07-10T02:24:40.285Z,4
2017-07-10T02:25:20.959Z,4
2017-07-10T02:26:01.551Z,4
2017-07-10T02:26:42.167Z,8
2017-07-10T02:27:22.761Z,8
2017-07-10T02:28:03.342Z,8
2017-07-10T02:28:43.914Z,8
2017-07-10T02:29:24.484Z,8
2017-07-10T02:30:05.095Z,8
2017-07-10T02:30:45.769Z,8
2017-07-10T02:31:26.377Z,8
2017-07-10T02:32:06.945Z,12
2017-07-10T02:32:47.513Z,12
2017-07-10T02:33:28.088Z,12
2017-07-10T02:34:08.687Z,16
2017-07-10T02:34:49.293Z,16
2017-07-10T02:35:29.913Z,16
2017-07-10T02:36:10.463Z,16
2017-07-10T02:36:51.050Z,16
2017-07-10T02:37:31.623Z,20
2017-07-10T02:38:12.286Z,24
2017-07-10T02:38:52.866Z,24
2017-07-10T02:39:33.457Z,24
2017-07-10T02:40:14.048Z,28
2017-07-10T02:40:54.614Z,28
2017-07-10T02:41:35.179Z,32
2017-07-10T02:42:15.783Z,32
2017-07-10T02:42:56.402Z,32
2017-07-10T02:43:36.978Z,40
2017-07-10T02:44:17.558Z,40
2017-07-10T02:44:58.150Z,40
2017-07-10T02:45:38.757Z,48
2017-07-10T02:46:19.347Z,48
2017-07-10T02:46:59.944Z,52
2017-07-10T02:47:40.548Z,52
2017-07-10T02:48:21.124Z,56
2017-07-10T02:49:01.713Z,56
2017-07-10T02:49:42.322Z,60
2017-07-10T02:50:22.892Z,60
2017-07-10T02:51:03.471Z,68
2017-07-10T02:51:44.036Z,68
2017-07-10T02:52:24.590Z,72
2017-07-10T02:53:05.163Z,80
2017-07-10T02:53:45.752Z,84
2017-07-10T02:54:26.370Z,88
2017-07-10T02:55:06.960Z,92
2017-07-10T02:55:47.535Z,96
2017-07-10T02:56:28.120Z,100
2017-07-10T02:57:08.707Z,108
2017-07-10T02:57:49.274Z,108
2017-07-10T02:58:29.853Z,116
2017-07-10T02:59:10.434Z,116
2017-07-10T02:59:51.012Z,120
2017-07-10T03:00:31.609Z,124
2017-07-10T03:01:12.205Z,128
2017-07-10T03:01:52.772Z,136
2017-07-10T03:02:33.426Z,136
2017-07-10T03:03:14.048Z,144
2017-07-10T03:03:54.630Z,152
2017-07-10T03:04:35.216Z,156
2017-07-10T03:05:15.772Z,164
2017-07-10T03:05:56.422Z,172
2017-07-10T03:06:37.022Z,180
2017-07-10T03:07:17.611Z,188
2017-07-10T03:07:58.172Z,196
2017-07-10T03:08:38.772Z,208
2017-07-10T03:09:19.371Z,212
2017-07-10T03:09:59.934Z,224
2017-07-10T03:10:40.574Z,232
2017-07-10T03:11:21.164Z,236
2017-07-10T03:12:01.749Z,248
2017-07-10T03:12:42.358Z,248
2017-07-10T03:13:22.931Z,260
2017-07-10T03:14:03.512Z,264
2017-07-10T03:14:44.086Z,272
2017-07-10T03:15:24.659Z,288
2017-07-10T03:16:05.238Z,300
2017-07-10T03:16:45.821Z,312
2017-07-10T03:17:26.429Z,328
2017-07-10T03:18:07.003Z,344
2017-07-10T03:18:47.571Z,364
2017-07-10T03:19:28.192Z,384
2017-07-10T03:20:08.756Z,408
2017-07-10T03:20:49.321Z,424
2017-07-10T03:21:29.915Z,444
2017-07-10T03:22:10.472Z,460
2017-07-10T03:22:51.029Z,476
2017-07-10T03:23:31.611Z,496
2017-07-10T03:24:12.219Z,520
2017-07-10T03:24:52.792Z,536
2017-07-10T03:25:33.364Z,556
2017-07-10T03:26:13.928Z,576
2017-07-10T03:26:54.540Z,592
2017-07-10T03:27:35.121Z,608
2017-07-10T03:28:15.685Z,624
2017-07-10T03:28:56.271Z,644
2017-07-10T03:29:36.855Z,660
2017-07-10T03:30:17.434Z,680
2017-07-10T03:30:58.037Z,696
2017-07-10T03:31:38.608Z,720
2017-07-10T03:32:19.180Z,744
2017-07-10T03:32:59.743Z,772
2017-07-10T03:33:40.314Z,796
2017-07-10T03:34:20.906Z,816
2017-07-10T03:35:01.492Z,840
2017-07-10T03:35:42.082Z,856
2017-07-10T03:36:22.649Z,876
2017-07-10T03:37:03.194Z,900
2017-07-10T03:37:43.765Z,924
2017-07-10T03:38:24.336Z,948
2017-07-10T03:39:04.962Z,976
2017-07-10T03:39:45.547Z,1000
2017-07-10T03:40:26.117Z,1020
2017-07-10T03:41:06.701Z,1028
2017-07-10T03:41:47.378Z,1040
2017-07-10T03:42:27.965Z,1044
2017-07-10T03:43:08.540Z,1048
2017-07-10T03:43:49.195Z,1048
2017-07-10T03:44:29.759Z,1052
2017-07-10T03:45:10.349Z,1056
2017-07-10T03:45:50.946Z,1068
2017-07-10T03:46:31.517Z,1076
2017-07-10T03:47:12.087Z,1088
2017-07-10T03:47:52.659Z,1104
2017-07-10T03:48:33.241Z,1124
2017-07-10T03:49:13.855Z,1152
2017-07-10T03:49:54.431Z,1180
2017-07-10T03:50:35.012Z,1212
2017-07-10T03:51:15.608Z,1240
2017-07-10T03:51:56.212Z,1272
2017-07-10T03:52:36.781Z,1300
2017-07-10T03:53:17.388Z,1332
2017-07-10T03:53:57.983Z,1352
2017-07-10T03:54:38.525Z,1376
2017-07-10T03:55:19.114Z,1400
2017-07-10T03:55:59.700Z,1412
2017-07-10T03:56:40.296Z,1424
2017-07-10T03:57:20.917Z,1432
2017-07-10T03:58:01.500Z,1436
2017-07-10T03:58:42.064Z,1444
2017-07-10T03:59:22.643Z,1444
2017-07-10T04:00:03.261Z,1452
2017-07-10T04:00:43.901Z,1452
2017-07-10T04:01:24.472Z,1456
2017-07-10T04:02:05.056Z,1456
2017-07-10T04:02:45.627Z,1460
2017-07-10T04:03:26.203Z,1460
2017-07-10T04:04:06.796Z,1460
2017-07-10T04:04:47.409Z,1464
2017-07-10T04:05:28.013Z,1472
2017-07-10T04:06:08.606Z,1480
2017-07-10T04:06:49.187Z,1492
2017-07-10T04:07:29.763Z,1512
2017-07-10T04:08:10.340Z,1532
2017-07-10T04:08:50.918Z,1560
2017-07-10T04:09:31.510Z,1600
2017-07-10T04:10:12.081Z,1640
2017-07-10T04:10:52.723Z,1688
2017-07-10T04:11:33.373Z,1748
2017-07-10T04:12:13.979Z,1816
2017-07-10T04:12:54.590Z,1888
2017-07-10T04:13:35.165Z,1968
2017-07-10T04:14:15.783Z,2044
2017-07-10T04:14:56.408Z,2124
2017-07-10T04:15:37.242Z,2208
2017-07-10T04:16:17.811Z,2292
2017-07-10T04:16:58.385Z,2368
2017-07-10T04:17:38.950Z,2444
2017-07-10T04:18:19.535Z,2516
2017-07-10T04:19:00.130Z,2580
2017-07-10T04:19:40.754Z,2656
2017-07-10T04:20:21.361Z,2732
2017-07-10T04:21:01.954Z,2800
2017-07-10T04:21:42.523Z,2876
2017-07-10T04:22:23.105Z,2952
2017-07-10T04:23:03.669Z,3036
2017-07-10T04:23:44.259Z,3116
2017-07-10T04:24:24.832Z,3192
2017-07-10T04:25:05.404Z,3264
2017-07-10T04:25:45.974Z,3328
2017-07-10T04:26:26.550Z,3388
2017-07-10T04:27:07.150Z,3452
2017-07-10T04:27:47.731Z,3520
2017-07-10T04:28:28.310Z,3596
2017-07-10T04:29:08.894Z,3676
2017-07-10T04:29:49.465Z,3756
2017-07-10T04:30:30.029Z,3828
2017-07-10T04:31:10.592Z,3888
2017-07-10T04:31:51.198Z,3948
2017-07-10T04:32:31.773Z,4008
2017-07-10T04:33:12.333Z,4068
2017-07-10T04:33:53.036Z,4132
2017-07-10T04:34:33.658Z,4184
2017-07-10T04:35:14.231Z,4240
2017-07-10T04:35:54.863Z,4296
2017-07-10T04:36:35.617Z,4352
2017-07-10T04:37:16.801Z,4392
2017-07-10T04:37:57.347Z,4424
2017-07-10T04:38:37.930Z,4448
2017-07-10T04:39:18.491Z,4456
2017-07-10T04:39:59.063Z,4456
2017-07-10T04:40:39.651Z,4460
2017-07-10T04:41:20.249Z,4484
2017-07-10T04:42:00.821Z,4516
2017-07-10T04:42:41.418Z,4564
2017-07-10T04:43:21.999Z,4608
2017-07-10T04:44:02.598Z,4648
2017-07-10T04:44:43.206Z,4692
2017-07-10T04:45:23.800Z,4736
2017-07-10T04:46:04.490Z,4784
2017-07-10T04:46:45.054Z,4836
2017-07-10T04:47:25.629Z,4884
2017-07-10T04:48:06.223Z,4940
2017-07-10T04:48:46.811Z,4980
2017-07-10T04:49:27.380Z,5028
2017-07-10T04:50:08.233Z,5072
2017-07-10T04:50:48.836Z,5108
2017-07-10T04:51:29.412Z,5140
2017-07-10T04:52:10.347Z,5172
2017-07-10T04:52:50.739Z,5192
2017-07-10T04:53:31.324Z,5204
2017-07-10T04:54:11.900Z,5216
2017-07-10T04:54:52.494Z,5220
2017-07-10T04:55:33.083Z,5228
2017-07-10T04:56:13.683Z,5236
2017-07-10T04:56:54.245Z,5244
2017-07-10T04:57:34.867Z,5248
2017-07-10T04:58:15.471Z,5252
2017-07-10T04:58:56.092Z,5248
2017-07-10T04:59:36.681Z,5232
2017-07-10T05:00:17.286Z,5216
2017-07-10T05:00:57.853Z,5212
2017-07-10T05:01:38.442Z,5224
2017-07-10T05:02:19.019Z,5216
2017-07-10T05:02:59.685Z,5200
2017-07-10T05:03:40.388Z,5176
2017-07-10T05:04:20.974Z,5152
2017-07-10T05:05:01.587Z,5124
2017-07-10T05:05:42.180Z,5128
2017-07-10T05:06:22.782Z,5148
2017-07-10T05:07:03.363Z,5176
2017-07-10T05:07:43.933Z,5204
2017-07-10T05:08:24.520Z,5208
2017-07-10T05:09:05.097Z,5200
2017-07-10T05:09:45.709Z,5192
2017-07-10T05:10:26.281Z,5176
2017-07-10T05:11:06.885Z,5152
2017-07-10T05:11:47.453Z,5128
2017-07-10T05:12:28.053Z,5104
2017-07-10T05:13:08.622Z,5068
2017-07-10T05:13:49.223Z,5044
2017-07-10T05:14:29.799Z,5012
2017-07-10T05:15:10.423Z,4980
2017-07-10T05:15:50.987Z,4952
2017-07-10T05:16:31.601Z,4928
2017-07-10T05:17:12.183Z,4888
2017-07-10T05:17:52.824Z,4836
2017-07-10T05:18:33.410Z,4776
2017-07-10T05:19:14.003Z,4700
2017-07-10T05:19:54.591Z,4612
2017-07-10T05:20:35.180Z,4532
2017-07-10T05:21:15.765Z,4464
2017-07-10T05:21:56.393Z,4392
2017-07-10T05:22:36.970Z,4316
2017-07-10T05:23:17.549Z,4232
2017-07-10T05:23:58.173Z,4148
2017-07-10T05:24:38.759Z,4056
2017-07-10T05:25:19.359Z,3972
2017-07-10T05:25:59.960Z,3916
2017-07-10T05:26:40.564Z,3856
2017-07-10T05:27:21.148Z,3764
2017-07-10T05:28:01.716Z,3640
2017-07-10T05:28:42.356Z,3516
2017-07-10T05:29:22.943Z,3408
2017-07-10T05:30:03.513Z,3324
2017-07-10T05:30:44.228Z,3308
2017-07-10T05:31:24.811Z,3352
2017-07-10T05:32:05.389Z,3428
2017-07-10T05:32:46.002Z,3540
2017-07-10T05:33:26.580Z,3692
2017-07-10T05:34:07.162Z,3836
2017-07-10T05:34:47.753Z,4004
2017-07-10T05:35:28.348Z,4192
2017-07-10T05:36:08.938Z,4408
2017-07-10T05:36:49.528Z,4640
2017-07-10T05:37:30.118Z,4936
2017-07-10T05:38:10.699Z,5248
2017-07-10T05:38:51.279Z,5688
2017-07-10T05:39:31.854Z,6248
2017-07-10T05:40:12.438Z,7152
2017-07-10T05:40:53.009Z,8408
2017-07-10T05:41:33.581Z,9952
2017-07-10T05:42:14.152Z,12792
2017-07-10T05:42:54.726Z,20096
2017-07-10T05:43:35.301Z,24864
2017-07-10T05:44:15.881Z,26016
2017-07-10T05:44:56.441Z,27104
2017-07-10T05:45:37.059Z,28256
2017-07-10T05:46:17.644Z,30688
2017-07-10T05:46:58.420Z,32480
2017-07-10T05:47:39.182Z,37152
2017-07-10T05:48:20.028Z,39040
2017-07-10T05:49:00.796Z,39456
2017-07-10T05:49:41.794Z,39680
2017-07-10T05:50:22.697Z,38816
2017-07-10T05:51:03.301Z,41152
2017-07-10T05:51:44.208Z,41312
2017-07-10T05:52:25.140Z,44096
2017-07-10T05:53:05.983Z,46272
2017-07-10T05:53:47.007Z,46656
2017-07-10T05:54:27.975Z,43328
2017-07-10T05:55:08.711Z,36448
2017-07-10T05:55:49.320Z,33120
2017-07-10T05:56:31.270Z,28480
2017-07-10T05:57:15.029Z,27584
2017-07-10T05:57:57.059Z,25664
2017-07-10T05:58:41.268Z,22848
2017-07-10T05:59:24.034Z,18720
2017-07-10T06:00:04.797Z,14316
2017-07-10T06:00:47.020Z,11156
2017-07-10T06:01:27.650Z,10648
2017-07-10T06:02:08.285Z,8704
2017-07-10T06:02:48.865Z,7188
2017-07-10T06:03:29.441Z,6492
2017-07-10T06:04:10.101Z,5724
2017-07-10T06:04:50.667Z,5296
2017-07-10T06:05:31.244Z,5288
2017-07-10T06:06:11.810Z,5412
2017-07-10T06:06:52.386Z,5568
2017-07-10T06:07:32.963Z,5732
2017-07-10T06:08:13.547Z,6048
2017-07-10T06:08:54.114Z,6208
2017-07-10T06:09:34.687Z,6588
2017-07-10T06:10:15.286Z,7840
2017-07-10T06:10:55.915Z,10532
2017-07-10T06:11:36.498Z,12920
2017-07-10T06:12:17.080Z,12644
2017-07-10T06:12:57.668Z,11664
2017-07-10T06:13:38.288Z,11000
2017-07-10T06:14:18.867Z,10012
2017-07-10T06:14:59.483Z,8920
2017-07-10T06:15:40.050Z,8388
2017-07-10T06:16:20.638Z,8804
2017-07-10T06:17:01.215Z,9268
2017-07-10T06:17:41.787Z,9772
2017-07-10T06:18:22.393Z,10168
2017-07-10T06:19:02.950Z,12636
2017-07-10T06:19:43.519Z,17824
2017-07-10T06:20:24.126Z,15712
2017-07-10T06:21:04.690Z,16352
2017-07-10T06:21:45.268Z,15896
2017-07-10T06:22:25.833Z,14440
2017-07-10T06:23:06.522Z,16384
2017-07-10T06:23:47.105Z,21472
2017-07-10T06:24:27.684Z,29056
2017-07-10T06:25:08.266Z,32896
2017-07-10T06:25:48.849Z,31808
2017-07-10T06:26:29.414Z,35200
2017-07-10T06:27:10.027Z,34176
2017-07-10T06:27:50.543Z,31040
2017-07-10T06:28:31.118Z,29440
2017-07-10T06:29:11.692Z,30144
2017-07-10T06:29:52.269Z,28896
2017-07-10T06:30:32.842Z,26784
2017-07-10T06:31:13.443Z,25120
2017-07-10T06:31:53.999Z,28992
2017-07-10T06:32:34.594Z,31456
2017-07-10T06:33:15.172Z,28352
2017-07-10T06:33:55.751Z,27424
2017-07-10T06:34:36.347Z,20896
2017-07-10T06:35:16.921Z,14928
2017-07-10T06:35:57.550Z,14444
2017-07-10T06:36:38.245Z,14372
2017-07-10T06:37:18.798Z,13960
2017-07-10T06:37:59.419Z,19520
2017-07-10T06:38:40.025Z,23360
2017-07-10T06:39:20.597Z,23456
2017-07-10T06:40:01.169Z,22112
2017-07-10T06:40:41.752Z,28480
2017-07-10T06:41:22.325Z,30304
2017-07-10T06:42:02.916Z,28608
2017-07-10T06:42:43.487Z,23808
2017-07-10T06:43:24.063Z,21440
2017-07-10T06:44:04.645Z,18912
2017-07-10T06:44:45.229Z,16448
2017-07-10T06:45:25.815Z,15536
2017-07-10T06:46:06.401Z,13612
2017-07-10T06:46:46.976Z,11892
2017-07-10T06:47:27.589Z,9648
2017-07-10T06:48:08.158Z,8580
2017-07-10T06:48:48.745Z,7180
2017-07-10T06:49:29.300Z,6296
2017-07-10T06:50:09.868Z,5316
2017-07-10T06:50:50.458Z,4620
2017-07-10T06:51:31.024Z,4180
2017-07-10T06:52:11.629Z,3824
2017-07-10T06:52:52.229Z,3616
2017-07-10T06:53:32.808Z,3496
2017-07-10T06:54:13.398Z,3416
2017-07-10T06:54:53.972Z,3380
2017-07-10T06:55:34.554Z,3360
2017-07-10T06:56:15.125Z,3364
2017-07-10T06:56:55.729Z,3384
2017-07-10T06:57:36.310Z,3392
2017-07-10T06:58:16.898Z,3392
2017-07-10T06:58:57.474Z,3352
2017-07-10T06:59:38.130Z,3268
2017-07-10T07:00:18.714Z,3196
2017-07-10T07:00:59.306Z,3172
2017-07-10T07:01:39.889Z,3088
2017-07-10T07:02:20.509Z,3060
2017-07-10T07:03:01.151Z,3032
2017-07-10T07:03:41.718Z,3012
2017-07-10T07:04:22.285Z,2996
2017-07-10T07:05:02.857Z,2976
2017-07-10T07:05:43.452Z,2980
2017-07-10T07:06:24.058Z,2984
2017-07-10T07:07:04.622Z,3004
2017-07-10T07:07:45.201Z,3028
2017-07-10T07:08:25.807Z,3068
2017-07-10T07:09:06.367Z,3112
2017-07-10T07:09:47.247Z,3136
2017-07-10T07:10:27.830Z,3184
2017-07-10T07:11:08.426Z,3236
2017-07-10T07:11:49.151Z,3328
2017-07-10T07:12:29.730Z,3412
2017-07-10T07:13:10.349Z,3520
2017-07-10T07:13:50.917Z,3628
2017-07-10T07:14:31.496Z,3720
2017-07-10T07:15:12.077Z,3800
2017-07-10T07:15:52.683Z,3996
2017-07-10T07:16:33.252Z,4280
2017-07-10T07:17:13.866Z,4820
2017-07-10T07:17:54.468Z,5416
2017-07-10T07:18:35.040Z,5956
2017-07-10T07:19:15.609Z,6356
2017-07-10T07:19:56.181Z,6016
2017-07-10T07:20:36.748Z,5604
2017-07-10T07:21:17.338Z,5380
2017-07-10T07:21:57.907Z,5244
2017-07-10T07:22:38.485Z,5332
2017-07-10T07:23:19.074Z,5128
2017-07-10T07:23:59.660Z,4972
2017-07-10T07:24:40.227Z,4904
2017-07-10T07:25:20.831Z,4680
2017-07-10T07:26:01.391Z,4560
2017-07-10T07:26:41.986Z,4416
2017-07-10T07:27:22.570Z,4288
2017-07-10T07:28:03.156Z,4120
2017-07-10T07:28:43.728Z,4004
2017-07-10T07:29:24.294Z,3884
2017-07-10T07:30:04.913Z,3812
2017-07-10T07:30:45.437Z,3796
2017-07-10T07:31:26.010Z,3804
2017-07-10T07:32:06.576Z,3804
2017-07-10T07:32:47.152Z,3804
2017-07-10T07:33:27.738Z,3776
2017-07-10T07:34:08.329Z,3740
2017-07-10T07:34:48.918Z,3716
2017-07-10T07:35:29.492Z,3688
2017-07-10T07:36:10.101Z,3704
2017-07-10T07:36:50.675Z,3740
2017-07-10T07:37:31.249Z,3828
2017-07-10T07:38:11.820Z,3896
2017-07-10T07:38:52.388Z,3952
2017-07-10T07:39:32.964Z,3984
2017-07-10T07:40:13.552Z,3972
2017-07-10T07:40:54.122Z,3944
2017-07-10T07:41:34.695Z,3904
2017-07-10T07:42:15.266Z,3836
2017-07-10T07:42:55.838Z,3716
2017-07-10T07:43:36.427Z,3516
2017-07-10T07:44:16.995Z,3300
2017-07-10T07:44:57.569Z,3068
2017-07-10T07:45:38.158Z,2852
2017-07-10T07:46:18.723Z,2660
2017-07-10T07:46:59.320Z,2504
2017-07-10T07:47:39.890Z,2384
2017-07-10T07:48:20.519Z,2304
2017-07-10T07:49:01.059Z,2256
2017-07-10T07:49:41.648Z,2220
2017-07-10T07:50:22.217Z,2196
2017-07-10T07:51:02.816Z,2156
2017-07-10T07:51:43.384Z,2112
2017-07-10T07:52:23.966Z,2064
2017-07-10T07:53:04.545Z,2024
2017-07-10T07:53:45.123Z,2000
2017-07-10T07:54:25.689Z,2004
2017-07-10T07:55:06.255Z,2012
2017-07-10T07:55:46.832Z,2028
2017-07-10T07:56:27.392Z,2036
2017-07-10T07:57:08.022Z,2032
2017-07-10T07:57:48.622Z,2024
2017-07-10T07:58:29.190Z,2004
2017-07-10T07:59:09.759Z,1980
2017-07-10T07:59:50.337Z,1940
2017-07-10T08:00:30.903Z,1900
2017-07-10T08:01:11.488Z,1844
2017-07-10T08:01:52.060Z,1784
2017-07-10T08:02:32.616Z,1716
2017-07-10T08:03:13.190Z,1652
2017-07-10T08:03:53.751Z,1576
2017-07-10T08:04:34.329Z,1504
2017-07-10T08:05:14.920Z,1420
2017-07-10T08:05:55.489Z,1340
2017-07-10T08:06:36.069Z,1264
2017-07-10T08:07:16.673Z,1200
2017-07-10T08:07:57.266Z,1136
2017-07-10T08:08:37.824Z,1072
2017-07-10T08:09:18.418Z,1004
2017-07-10T08:09:59.021Z,932
2017-07-10T08:10:39.592Z,852
2017-07-10T08:11:20.195Z,784
2017-07-10T08:12:00.837Z,720
2017-07-10T08:12:41.406Z,672
2017-07-10T08:13:21.990Z,636
2017-07-10T08:14:02.552Z,604
2017-07-10T08:14:43.141Z,572
2017-07-10T08:15:23.735Z,544
2017-07-10T08:16:04.313Z,516
2017-07-10T08:16:44.923Z,492
2017-07-10T08:17:25.535Z,468
2017-07-10T08:18:06.094Z,452
2017-07-10T08:18:46.670Z,436
2017-07-10T08:19:27.245Z,424
2017-07-10T08:20:07.814Z,408
2017-07-10T08:20:48.396Z,400
2017-07-10T08:21:29.825Z,392
2017-07-10T08:22:10.399Z,384
2017-07-10T08:22:51.013Z,380
2017-07-10T08:23:31.589Z,380
2017-07-10T08:24:12.164Z,376
2017-07-10T08:24:52.736Z,380
2017-07-10T08:25:33.297Z,380
2017-07-10T08:26:13.883Z,388
2017-07-10T08:26:54.466Z,396
2017-07-10T08:27:35.060Z,408
2017-07-10T08:28:15.693Z,416
2017-07-10T08:28:56.280Z,424
2017-07-10T08:29:36.862Z,436
2017-07-10T08:30:17.481Z,448
2017-07-10T08:30:58.084Z,456
2017-07-10T08:31:39.764Z,472
2017-07-10T08:32:20.333Z,456
2017-07-10T08:33:00.924Z,452
2017-07-10T08:33:41.940Z,440
2017-07-10T08:34:22.500Z,428
2017-07-10T08:35:03.099Z,412
2017-07-10T08:35:43.687Z,404
2017-07-10T08:36:24.255Z,404
2017-07-10T08:37:04.858Z,404
2017-07-10T08:37:45.431Z,408
2017-07-10T08:38:26.079Z,412
2017-07-10T08:39:06.644Z,412
2017-07-10T08:39:47.328Z,408
2017-07-10T08:40:27.900Z,404
2017-07-10T08:41:08.472Z,392
2017-07-10T08:41:49.043Z,384
2017-07-10T08:42:29.605Z,372
2017-07-10T08:43:10.205Z,368
2017-07-10T08:43:50.796Z,364
2017-07-10T08:44:32.202Z,356
2017-07-10T08:45:12.821Z,352
2017-07-10T08:45:56.346Z,348
2017-07-10T08:46:38.846Z,344
2017-07-10T08:47:19.470Z,340
2017-07-10T08:48:00.056Z,340
2017-07-10T08:48:40.667Z,344
2017-07-10T08:49:21.252Z,340
2017-07-10T08:50:01.813Z,332
2017-07-10T08:50:42.402Z,328
2017-07-10T08:51:24.830Z,320
2017-07-10T08:52:05.404Z,304
2017-07-10T08:52:45.972Z,292
2017-07-10T08:53:26.569Z,284
2017-07-10T08:54:07.158Z,276
2017-07-10T08:54:47.720Z,260
2017-07-10T08:55:28.300Z,252
2017-07-10T08:56:08.890Z,236
2017-07-10T08:56:50.232Z,228
2017-07-10T08:57:30.791Z,216
2017-07-10T08:58:11.369Z,208
2017-07-10T08:58:51.975Z,204
2017-07-10T08:59:32.583Z,208
2017-07-10T09:00:13.217Z,204
2017-07-10T09:00:53.793Z,208
2017-07-10T09:01:34.397Z,212
2017-07-10T09:02:14.997Z,224
2017-07-10T09:02:55.586Z,240
2017-07-10T09:03:36.411Z,244
2017-07-10T09:04:17.138Z,256
2017-07-10T09:04:57.712Z,260
2017-07-10T09:05:38.269Z,272
2017-07-10T09:06:18.868Z,276
2017-07-10T09:06:59.439Z,284
2017-07-10T09:07:40.009Z,296
2017-07-10T09:08:21.120Z,308
2017-07-10T09:09:01.714Z,324
2017-07-10T09:09:42.299Z,336
2017-07-10T09:10:23.035Z,352
2017-07-10T09:11:03.692Z,360
2017-07-10T09:11:44.302Z,372
2017-07-10T09:12:24.879Z,384
2017-07-10T09:13:05.455Z,396
2017-07-10T09:13:46.027Z,408
2017-07-10T09:14:26.604Z,420
2017-07-10T09:15:07.178Z,432
2017-07-10T09:15:47.757Z,444
2017-07-10T09:16:28.342Z,456
2017-07-10T09:17:08.925Z,468
2017-07-10T09:17:49.494Z,480
2017-07-10T09:18:30.064Z,496
2017-07-10T09:19:10.748Z,508
2017-07-10T09:19:51.331Z,528